Accueil
METAR-TAF:

METAR-TAF

Aéroports :

Alofi, Niue

Aéroport international de Niue

latitude: 19-04S, longitude: 169-55W, altitude: 20 m

Observation

Le bulletin a été fait il y a 44 minutes, à 13:00 UTC
Vent 1 kt de est
Température 22°C
Humidité 94%
Pression 1015 hPa

METAR: NIUE 211300Z AUTO 08001KT //// ////// 22/21 Q1015

Heure: 02:44 (13:44 UTC)

Prévision

Le bulletin a été fait il y a 2 heures et 12 minutes, à 11:32 UTC
Prévision valable du 21 à 12 UTC au 22 à 12 UTC
Vent 8 kt de nord-est
Visibilité 10 km ou plus
Nuages épars à une hauteur de 1600 ft
Nuages épars à une hauteur de 3000 ft

TAF: NIUE 211132Z 2112/2212 04008KT 9999 SCT016 SCT030

Observations et prévisions météorologiques de plus de 4000 aéroports (messages METAR et TAF).

Les stations disponibles sont représentées par des disques jaunes et rouges sur la carte.

Passer la souris dessus pour voir le nom de la station.

Cliquer dessus pour voir les observations et prévisions météorologiques.

Pour changer de carte: cliquez sur les boutons verts avec une croix noire pour zoomer, sur le bouton vert avec un tiret pour effectuer un zoom arrière, ou sur les flèches vertes pour les cartes adjacentes.


METAR-TAF: